KAWM/AWM METAR and TAF weather

Enter ICAO airport designator
Station Type Date Time Source
KAWM METAR 2019/05/27 08:53 UTC NOAA

KAWM 270853Z AUTO 18003KT 10SM CLR 23/20 A2998 RMK AO2 SLP147 T02330200 57009


Station Type Date Time Source
KAWM Decoded METAR 2019/05/27 08:53 UTC NOAA

WEST MEMPHIS MUNICIPAL AIRPORT, AR, United States (KAWM) 35-08N 090-14W
May 27, 2019 - 04:53 AM EDT / 2019.05.27 0853 UTC
Wind: from the S (180 degrees) at 3 MPH (3 KT):0
Visibility: 10 mile(s):0
Sky conditions: clear
Temperature: 73.9 F (23.3 C)
Dew Point: 68.0 F (20.0 C)
Relative Humidity: 81%
Pressure (altimeter): 29.98 in. Hg (1015 hPa)
Pressure tendency: 0.03 inches (0.9 hPa) lower than three hours ago
ob: KAWM 270853Z AUTO 18003KT 10SM CLR 23/20 A2998 RMK AO2 SLP147 T02330200 57009
cycle: 9

Station Type Date Time Source
KAWM TAF UTC NOAA

Error!

Example: see airport list